sensor_id;sensor_type;location;lat;lon;timestamp;pressure;altitude;pressure_sealevel;temperature;humidity
53514;BME280;39768;54.148;12.174;2022-11-22T00:03:12;100120.56;;;1.11;100.00
53514;BME280;39768;54.148;12.174;2022-11-22T00:07:14;100116.94;;;1.01;100.00
53514;BME280;39768;54.148;12.174;2022-11-22T00:11:15;100125.00;;;1.17;100.00
53514;BME280;39768;54.148;12.174;2022-11-22T00:15:17;100127.78;;;1.29;100.00
53514;BME280;39768;54.148;12.174;2022-11-22T00:19:18;100110.78;;;0.98;100.00
53514;BME280;39768;54.148;12.174;2022-11-22T00:23:20;100133.47;;;1.00;100.00
53514;BME280;39768;54.148;12.174;2022-11-22T00:27:21;100136.81;;;0.92;100.00
53514;BME280;39768;54.148;12.174;2022-11-22T00:31:23;100139.78;;;1.15;100.00
53514;BME280;39768;54.148;12.174;2022-11-22T00:35:24;100152.50;;;0.92;100.00
53514;BME280;39768;54.148;12.174;2022-11-22T00:39:26;100154.91;;;0.78;100.00
53514;BME280;39768;54.148;12.174;2022-11-22T00:43:28;100152.41;;;0.86;100.00
53514;BME280;39768;54.148;12.174;2022-11-22T00:47:29;100162.03;;;0.88;100.00
53514;BME280;39768;54.148;12.174;2022-11-22T00:51:31;100147.47;;;1.05;100.00
53514;BME280;39768;54.148;12.174;2022-11-22T00:55:33;100143.09;;;1.01;100.00
53514;BME280;39768;54.148;12.174;2022-11-22T00:59:34;100119.22;;;0.80;100.00
53514;BME280;39768;54.148;12.174;2022-11-22T01:03:36;100124.78;;;1.01;100.00
53514;BME280;39768;54.148;12.174;2022-11-22T01:07:37;100129.88;;;0.94;100.00
53514;BME280;39768;54.148;12.174;2022-11-22T01:11:38;100130.34;;;0.67;100.00
53514;BME280;39768;54.148;12.174;2022-11-22T01:15:40;100116.53;;;0.76;100.00
53514;BME280;39768;54.148;12.174;2022-11-22T01:19:42;100116.03;;;0.99;100.00
53514;BME280;39768;54.148;12.174;2022-11-22T01:23:43;100112.28;;;0.81;100.00
53514;BME280;39768;54.148;12.174;2022-11-22T01:27:45;100106.13;;;0.77;100.00
53514;BME280;39768;54.148;12.174;2022-11-22T01:31:46;100119.34;;;0.88;100.00
53514;BME280;39768;54.148;12.174;2022-11-22T01:35:48;100109.78;;;0.90;100.00
53514;BME280;39768;54.148;12.174;2022-11-22T01:39:49;100108.97;;;0.94;100.00
53514;BME280;39768;54.148;12.174;2022-11-22T01:43:51;100109.69;;;0.82;100.00
53514;BME280;39768;54.148;12.174;2022-11-22T01:47:52;100129.25;;;0.54;100.00
53514;BME280;39768;54.148;12.174;2022-11-22T01:52:00;100135.13;;;0.94;100.00
53514;BME280;39768;54.148;12.174;2022-11-22T01:56:06;100118.50;;;0.90;100.00
53514;BME280;39768;54.148;12.174;2022-11-22T02:00:15;100118.72;;;1.02;100.00
53514;BME280;39768;54.148;12.174;2022-11-22T02:04:18;100120.22;;;0.87;100.00
53514;BME280;39768;54.148;12.174;2022-11-22T02:08:27;100116.66;;;0.82;100.00
53514;BME280;39768;54.148;12.174;2022-11-22T02:12:33;100111.91;;;1.14;100.00
53514;BME280;39768;54.148;12.174;2022-11-22T02:16:36;100112.63;;;1.03;100.00
53514;BME280;39768;54.148;12.174;2022-11-22T02:20:38;100108.59;;;1.27;100.00
53514;BME280;39768;54.148;12.174;2022-11-22T02:24:45;100112.09;;;1.29;100.00
53514;BME280;39768;54.148;12.174;2022-11-22T02:28:51;100105.59;;;0.99;100.00
53514;BME280;39768;54.148;12.174;2022-11-22T02:32:53;100103.97;;;1.09;100.00
53514;BME280;39768;54.148;12.174;2022-11-22T02:36:54;100111.91;;;1.14;100.00
53514;BME280;39768;54.148;12.174;2022-11-22T02:41:01;100104.88;;;1.11;100.00
53514;BME280;39768;54.148;12.174;2022-11-22T02:45:04;100108.53;;;1.24;100.00
53514;BME280;39768;54.148;12.174;2022-11-22T02:49:05;100120.63;;;0.58;100.00
53514;BME280;39768;54.148;12.174;2022-11-22T02:53:08;100108.34;;;1.10;100.00
53514;BME280;39768;54.148;12.174;2022-11-22T02:57:11;100076.53;;;0.78;100.00
53514;BME280;39768;54.148;12.174;2022-11-22T03:01:13;100075.19;;;1.08;100.00
53514;BME280;39768;54.148;12.174;2022-11-22T03:05:14;100085.84;;;0.62;100.00
53514;BME280;39768;54.148;12.174;2022-11-22T03:09:16;100068.78;;;0.84;100.00
53514;BME280;39768;54.148;12.174;2022-11-22T03:13:17;100063.50;;;0.80;100.00
53514;BME280;39768;54.148;12.174;2022-11-22T03:17:19;100065.16;;;0.75;100.00
53514;BME280;39768;54.148;12.174;2022-11-22T03:21:20;100063.34;;;0.69;100.00
53514;BME280;39768;54.148;12.174;2022-11-22T03:25:22;100043.41;;;0.76;100.00
53514;BME280;39768;54.148;12.174;2022-11-22T03:29:23;100047.34;;;0.48;100.00
53514;BME280;39768;54.148;12.174;2022-11-22T03:33:25;100039.59;;;1.16;100.00
53514;BME280;39768;54.148;12.174;2022-11-22T03:37:26;100049.16;;;1.14;100.00
53514;BME280;39768;54.148;12.174;2022-11-22T03:41:28;100063.69;;;0.93;100.00
53514;BME280;39768;54.148;12.174;2022-11-22T03:45:29;100049.22;;;1.17;100.00
53514;BME280;39768;54.148;12.174;2022-11-22T03:49:31;100044.69;;;1.06;100.00
53514;BME280;39768;54.148;12.174;2022-11-22T03:53:33;100050.66;;;0.96;100.00
53514;BME280;39768;54.148;12.174;2022-11-22T03:57:34;100042.97;;;1.07;100.00
53514;BME280;39768;54.148;12.174;2022-11-22T04:01:36;100038.78;;;1.18;100.00
53514;BME280;39768;54.148;12.174;2022-11-22T04:05:37;100024.69;;;1.09;100.00
53514;BME280;39768;54.148;12.174;2022-11-22T04:09:39;100030.69;;;1.00;100.00
53514;BME280;39768;54.148;12.174;2022-11-22T04:13:40;100019.69;;;1.27;100.00
53514;BME280;39768;54.148;12.174;2022-11-22T04:18:00;100015.94;;;1.06;100.00
53514;BME280;39768;54.148;12.174;2022-11-22T04:22:01;100010.41;;;0.82;100.00
53514;BME280;39768;54.148;12.174;2022-11-22T04:26:03;100007.16;;;0.98;100.00
53514;BME280;39768;54.148;12.174;2022-11-22T04:30:05;100008.50;;;1.38;100.00
53514;BME280;39768;54.148;12.174;2022-11-22T04:34:06;100001.97;;;1.01;100.00
53514;BME280;39768;54.148;12.174;2022-11-22T04:38:09;100005.69;;;1.19;100.00
53514;BME280;39768;54.148;12.174;2022-11-22T04:42:10;100003.00;;;1.16;100.00
53514;BME280;39768;54.148;12.174;2022-11-22T04:46:30;100003.00;;;1.16;100.00
53514;BME280;39768;54.148;12.174;2022-11-22T04:50:32;100018.44;;;0.96;100.00
53514;BME280;39768;54.148;12.174;2022-11-22T04:54:52;100014.19;;;1.05;100.00
53514;BME280;39768;54.148;12.174;2022-11-22T04:58:54;100010.75;;;1.08;100.00
53514;BME280;39768;54.148;12.174;2022-11-22T05:02:56;99998.72;;;1.22;100.00
53514;BME280;39768;54.148;12.174;2022-11-22T05:06:58;100013.50;;;1.19;100.00
53514;BME280;39768;54.148;12.174;2022-11-22T05:10:59;100016.00;;;1.10;100.00
53514;BME280;39768;54.148;12.174;2022-11-22T05:15:01;100010.16;;;1.30;100.00
53514;BME280;39768;54.148;12.174;2022-11-22T05:19:02;99996.75;;;1.01;100.00
53514;BME280;39768;54.148;12.174;2022-11-22T05:23:04;100002.16;;;1.17;100.00
53514;BME280;39768;54.148;12.174;2022-11-22T05:27:24;99989.13;;;1.18;100.00
53514;BME280;39768;54.148;12.174;2022-11-22T05:31:26;100003.97;;;1.24;100.00
53514;BME280;39768;54.148;12.174;2022-11-22T05:35:28;100001.38;;;1.25;100.00
53514;BME280;39768;54.148;12.174;2022-11-22T05:39:29;100010.94;;;1.23;100.00
53514;BME280;39768;54.148;12.174;2022-11-22T05:43:31;100003.91;;;1.18;100.00
53514;BME280;39768;54.148;12.174;2022-11-22T05:47:34;99997.03;;;1.26;100.00
53514;BME280;39768;54.148;12.174;2022-11-22T05:51:36;99999.31;;;0.98;100.00
53514;BME280;39768;54.148;12.174;2022-11-22T05:55:37;99986.34;;;1.08;100.00
53514;BME280;39768;54.148;12.174;2022-11-22T05:59:39;99986.34;;;1.08;100.00
53514;BME280;39768;54.148;12.174;2022-11-22T06:03:45;99990.81;;;1.15;100.00
53514;BME280;39768;54.148;12.174;2022-11-22T06:07:46;99994.34;;;1.18;100.00
53514;BME280;39768;54.148;12.174;2022-11-22T06:11:48;100002.13;;;1.14;100.00
53514;BME280;39768;54.148;12.174;2022-11-22T06:15:49;99995.34;;;1.31;100.00
53514;BME280;39768;54.148;12.174;2022-11-22T06:19:51;100003.72;;;1.02;100.00
53514;BME280;39768;54.148;12.174;2022-11-22T06:23:53;100019.75;;;1.31;100.00
53514;BME280;39768;54.148;12.174;2022-11-22T06:27:58;100031.97;;;1.34;100.00
53514;BME280;39768;54.148;12.174;2022-11-22T06:31:59;100046.03;;;1.42;100.00
53514;BME280;39768;54.148;12.174;2022-11-22T06:36:10;100041.44;;;1.23;100.00
53514;BME280;39768;54.148;12.174;2022-11-22T06:40:12;100043.59;;;1.57;100.00
53514;BME280;39768;54.148;12.174;2022-11-22T06:44:14;100056.59;;;1.51;100.00
53514;BME280;39768;54.148;12.174;2022-11-22T06:48:15;100065.72;;;1.14;100.00
53514;BME280;39768;54.148;12.174;2022-11-22T06:52:17;100070.13;;;1.17;100.00
53514;BME280;39768;54.148;12.174;2022-11-22T06:56:35;100054.78;;;1.46;100.00
53514;BME280;39768;54.148;12.174;2022-11-22T07:00:38;100048.72;;;1.47;100.00
53514;BME280;39768;54.148;12.174;2022-11-22T07:04:39;100044.44;;;1.55;100.00
53514;BME280;39768;54.148;12.174;2022-11-22T07:09:03;100032.94;;;1.40;100.00
53514;BME280;39768;54.148;12.174;2022-11-22T07:13:05;100023.72;;;1.73;100.00
53514;BME280;39768;54.148;12.174;2022-11-22T07:17:06;100030.47;;;1.54;100.00
53514;BME280;39768;54.148;12.174;2022-11-22T07:21:13;100038.06;;;1.31;100.00
53514;BME280;39768;54.148;12.174;2022-11-22T07:25:15;100043.66;;;1.62;100.00
53514;BME280;39768;54.148;12.174;2022-11-22T07:29:16;100046.72;;;1.27;100.00
53514;BME280;39768;54.148;12.174;2022-11-22T07:33:18;100048.09;;;1.70;100.00
53514;BME280;39768;54.148;12.174;2022-11-22T07:37:19;100044.69;;;1.81;100.00
53514;BME280;39768;54.148;12.174;2022-11-22T07:41:21;100050.09;;;1.96;100.00
53514;BME280;39768;54.148;12.174;2022-11-22T07:45:22;100050.66;;;1.66;100.00
53514;BME280;39768;54.148;12.174;2022-11-22T07:49:24;100052.28;;;1.55;100.00
53514;BME280;39768;54.148;12.174;2022-11-22T07:53:25;100054.13;;;1.66;100.00
53514;BME280;39768;54.148;12.174;2022-11-22T07:57:27;100045.47;;;1.69;100.00
53514;BME280;39768;54.148;12.174;2022-11-22T08:01:28;100049.41;;;1.32;100.00
53514;BME280;39768;54.148;12.174;2022-11-22T08:05:30;100044.22;;;1.36;100.00
53514;BME280;39768;54.148;12.174;2022-11-22T08:09:31;100050.47;;;1.51;100.00
53514;BME280;39768;54.148;12.174;2022-11-22T08:13:33;100041.81;;;1.55;100.00
53514;BME280;39768;54.148;12.174;2022-11-22T08:17:35;100035.63;;;1.50;100.00
53514;BME280;39768;54.148;12.174;2022-11-22T08:21:37;100035.16;;;1.84;100.00
53514;BME280;39768;54.148;12.174;2022-11-22T08:25:38;100038.72;;;1.91;100.00
53514;BME280;39768;54.148;12.174;2022-11-22T08:29:40;100033.34;;;1.80;100.00
53514;BME280;39768;54.148;12.174;2022-11-22T08:33:41;100037.00;;;1.96;100.00
53514;BME280;39768;54.148;12.174;2022-11-22T08:37:43;100037.03;;;1.99;100.00
53514;BME280;39768;54.148;12.174;2022-11-22T08:41:44;100030.44;;;1.51;100.00
53514;BME280;39768;54.148;12.174;2022-11-22T08:45:47;100036.09;;;1.94;100.00
53514;BME280;39768;54.148;12.174;2022-11-22T08:49:49;100027.34;;;1.89;100.00
53514;BME280;39768;54.148;12.174;2022-11-22T08:53:51;100023.97;;;2.00;100.00
53514;BME280;39768;54.148;12.174;2022-11-22T08:57:57;100025.72;;;2.00;100.00
53514;BME280;39768;54.148;12.174;2022-11-22T09:02:02;100030.16;;;2.10;100.00
53514;BME280;39768;54.148;12.174;2022-11-22T09:06:06;100037.84;;;1.95;100.00
53514;BME280;39768;54.148;12.174;2022-11-22T09:10:28;100048.66;;;2.28;100.00
53514;BME280;39768;54.148;12.174;2022-11-22T09:14:29;100038.97;;;2.20;100.00
53514;BME280;39768;54.148;12.174;2022-11-22T09:18:31;100049.34;;;2.07;100.00
53514;BME280;39768;54.148;12.174;2022-11-22T09:22:33;100046.88;;;2.27;100.00
53514;BME280;39768;54.148;12.174;2022-11-22T09:26:35;100042.41;;;2.12;100.00
53514;BME280;39768;54.148;12.174;2022-11-22T09:30:36;100046.00;;;2.22;100.00
53514;BME280;39768;54.148;12.174;2022-11-22T09:34:38;100047.72;;;2.20;100.00
53514;BME280;39768;54.148;12.174;2022-11-22T09:38:40;100046.22;;;2.51;100.00
53514;BME280;39768;54.148;12.174;2022-11-22T09:43:06;100038.47;;;2.71;100.00
53514;BME280;39768;54.148;12.174;2022-11-22T09:51:41;100031.56;;;2.79;100.00
53514;BME280;39768;54.148;12.174;2022-11-22T09:55:48;100018.34;;;2.62;100.00
53514;BME280;39768;54.148;12.174;2022-11-22T10:00:04;100017.66;;;2.94;100.00
53514;BME280;39768;54.148;12.174;2022-11-22T10:04:33;100034.19;;;2.77;100.00
53514;BME280;39768;54.148;12.174;2022-11-22T10:08:51;100035.78;;;2.59;100.00
53514;BME280;39768;54.148;12.174;2022-11-22T10:13:14;100033.03;;;2.37;100.00
53514;BME280;39768;54.148;12.174;2022-11-22T10:17:24;100038.13;;;2.21;100.00
53514;BME280;39768;54.148;12.174;2022-11-22T10:21:29;100040.22;;;2.66;100.00
53514;BME280;39768;54.148;12.174;2022-11-22T10:25:46;100034.13;;;2.67;100.00
53514;BME280;39768;54.148;12.174;2022-11-22T10:29:54;100034.00;;;2.50;100.00
53514;BME280;39768;54.148;12.174;2022-11-22T10:34:19;100037.50;;;2.57;100.00
53514;BME280;39768;54.148;12.174;2022-11-22T10:48:37;100047.28;;;2.83;100.00
53514;BME280;39768;54.148;12.174;2022-11-22T10:56:53;100059.66;;;3.01;100.00
53514;BME280;39768;54.148;12.174;2022-11-22T11:01:09;100056.13;;;2.95;100.00
53514;BME280;39768;54.148;12.174;2022-11-22T11:05:18;100050.91;;;2.96;100.00
53514;BME280;39768;54.148;12.174;2022-11-22T11:09:30;100044.50;;;2.56;100.00
53514;BME280;39768;54.148;12.174;2022-11-22T11:13:57;100050.94;;;3.05;100.00
53514;BME280;39768;54.148;12.174;2022-11-22T11:18:02;100055.31;;;3.05;100.00
53514;BME280;39768;54.148;12.174;2022-11-22T11:26:27;100064.00;;;2.96;100.00
53514;BME280;39768;54.148;12.174;2022-11-22T11:30:36;100063.91;;;2.81;100.00
53514;BME280;39768;54.148;12.174;2022-11-22T11:34:49;100055.28;;;3.03;100.00
53514;BME280;39768;54.148;12.174;2022-11-22T11:38:56;100048.22;;;2.90;100.00
53514;BME280;39768;54.148;12.174;2022-11-22T11:43:19;100041.28;;;2.95;100.00
53514;BME280;39768;54.148;12.174;2022-11-22T11:47:32;100033.47;;;3.07;100.00
53514;BME280;39768;54.148;12.174;2022-11-22T11:51:38;100036.94;;;3.02;100.00
53514;BME280;39768;54.148;12.174;2022-11-22T11:55:41;100023.72;;;2.87;100.00
53514;BME280;39768;54.148;12.174;2022-11-22T11:59:45;100016.03;;;3.18;100.00
53514;BME280;39768;54.148;12.174;2022-11-22T12:04:01;100017.75;;;3.10;100.00
53514;BME280;39768;54.148;12.174;2022-11-22T12:08:27;100030.78;;;2.94;100.00
53514;BME280;39768;54.148;12.174;2022-11-22T12:12:48;100038.66;;;2.98;100.00
53514;BME280;39768;54.148;12.174;2022-11-22T12:16:56;100051.72;;;2.91;100.00
53514;BME280;39768;54.148;12.174;2022-11-22T12:25:35;100057.88;;;2.94;100.00
53514;BME280;39768;54.148;12.174;2022-11-22T12:29:39;100044.59;;;2.65;100.00
53514;BME280;39768;54.148;12.174;2022-11-22T12:33:55;100036.03;;;2.94;100.00
53514;BME280;39768;54.148;12.174;2022-11-22T12:38:17;100018.56;;;2.99;100.00
53514;BME280;39768;54.148;12.174;2022-11-22T12:42:27;100032.69;;;3.31;100.00
53514;BME280;39768;54.148;12.174;2022-11-22T12:46:43;100034.50;;;3.44;100.00
53514;BME280;39768;54.148;12.174;2022-11-22T12:50:49;100033.47;;;3.06;100.00
53514;BME280;39768;54.148;12.174;2022-11-22T12:55:02;100036.22;;;3.38;100.00
53514;BME280;39768;54.148;12.174;2022-11-22T12:59:31;100051.88;;;3.19;100.00
53514;BME280;39768;54.148;12.174;2022-11-22T13:03:48;100053.50;;;2.99;100.00
53514;BME280;39768;54.148;12.174;2022-11-22T13:08:02;100043.09;;;3.08;100.00
53514;BME280;39768;54.148;12.174;2022-11-22T13:12:21;100046.59;;;3.10;100.00
53514;BME280;39768;54.148;12.174;2022-11-22T13:16:25;100046.59;;;3.12;100.00
53514;BME280;39768;54.148;12.174;2022-11-22T13:20:34;100041.44;;;3.30;100.00
53514;BME280;39768;54.148;12.174;2022-11-22T13:29:14;100060.63;;;3.22;100.00
53514;BME280;39768;54.148;12.174;2022-11-22T13:33:23;100057.13;;;3.21;100.00
53514;BME280;39768;54.148;12.174;2022-11-22T13:37:27;100054.63;;;3.47;100.00
53514;BME280;39768;54.148;12.174;2022-11-22T13:41:36;100051.03;;;3.30;100.00
53514;BME280;39768;54.148;12.174;2022-11-22T13:49:50;100041.47;;;3.38;100.00
53514;BME280;39768;54.148;12.174;2022-11-22T14:02:41;100047.56;;;3.31;100.00
53514;BME280;39768;54.148;12.174;2022-11-22T14:15:13;100032.69;;;3.31;100.00
53514;BME280;39768;54.148;12.174;2022-11-22T14:19:47;100039.66;;;3.28;100.00
53514;BME280;39768;54.148;12.174;2022-11-22T14:28:43;100038.00;;;3.39;100.00
53514;BME280;39768;54.148;12.174;2022-11-22T14:33:00;100037.84;;;3.13;100.00
53514;BME280;39768;54.148;12.174;2022-11-22T14:41:39;100054.38;;;3.00;100.00
53514;BME280;39768;54.148;12.174;2022-11-22T14:46:00;100042.09;;;2.90;100.00
53514;BME280;39768;54.148;12.174;2022-11-22T14:50:07;100042.25;;;3.18;100.00
53514;BME280;39768;54.148;12.174;2022-11-22T14:54:19;100050.16;;;3.29;100.00
53514;BME280;39768;54.148;12.174;2022-11-22T14:58:24;100051.03;;;3.24;100.00
53514;BME280;39768;54.148;12.174;2022-11-22T15:02:45;100051.91;;;3.24;100.00
53514;BME280;39768;54.148;12.174;2022-11-22T15:15:35;100066.84;;;3.39;100.00
53514;BME280;39768;54.148;12.174;2022-11-22T15:19:57;100074.63;;;3.22;100.00
53514;BME280;39768;54.148;12.174;2022-11-22T15:24:23;100084.25;;;3.22;100.00
53514;BME280;39768;54.148;12.174;2022-11-22T15:28:53;100094.72;;;3.20;100.00
53514;BME280;39768;54.148;12.174;2022-11-22T15:33:29;100089.50;;;3.28;100.00
53514;BME280;39768;54.148;12.174;2022-11-22T15:37:58;100092.94;;;3.14;100.00
53514;BME280;39768;54.148;12.174;2022-11-22T15:42:23;100099.09;;;3.19;100.00
53514;BME280;39768;54.148;12.174;2022-11-22T15:46:45;100093.63;;;2.86;100.00
53514;BME280;39768;54.148;12.174;2022-11-22T15:55:29;100095.72;;;3.46;100.00
53514;BME280;39768;54.148;12.174;2022-11-22T15:59:51;100094.63;;;3.05;100.00
53514;BME280;39768;54.148;12.174;2022-11-22T16:03:57;100093.00;;;3.30;100.00
53514;BME280;39768;54.148;12.174;2022-11-22T16:08:00;100091.25;;;3.30;100.00
53514;BME280;39768;54.148;12.174;2022-11-22T16:12:05;100088.69;;;3.38;100.00
53514;BME280;39768;54.148;12.174;2022-11-22T16:16:28;100089.53;;;3.26;100.00
53514;BME280;39768;54.148;12.174;2022-11-22T16:20:32;100087.91;;;3.54;100.00
53514;BME280;39768;54.148;12.174;2022-11-22T16:24:34;100085.22;;;3.46;100.00
53514;BME280;39768;54.148;12.174;2022-11-22T16:28:36;100086.88;;;3.28;100.00
53514;BME280;39768;54.148;12.174;2022-11-22T16:32:38;100087.75;;;3.27;100.00
53514;BME280;39768;54.148;12.174;2022-11-22T16:36:39;100092.09;;;3.22;100.00
53514;BME280;39768;54.148;12.174;2022-11-22T16:40:42;100091.16;;;3.12;100.00
53514;BME280;39768;54.148;12.174;2022-11-22T16:44:44;100081.72;;;3.46;100.00
53514;BME280;39768;54.148;12.174;2022-11-22T16:48:45;100093.97;;;3.48;100.00
53514;BME280;39768;54.148;12.174;2022-11-22T16:52:47;100084.38;;;3.57;100.00
53514;BME280;39768;54.148;12.174;2022-11-22T16:56:52;100078.16;;;3.32;100.00
53514;BME280;39768;54.148;12.174;2022-11-22T17:00:54;100079.16;;;3.63;100.00
53514;BME280;39768;54.148;12.174;2022-11-22T17:04:56;100077.22;;;3.19;100.00
53514;BME280;39768;54.148;12.174;2022-11-22T17:08:59;100084.34;;;3.46;100.00
53514;BME280;39768;54.148;12.174;2022-11-22T17:13:00;100085.28;;;3.54;100.00
53514;BME280;39768;54.148;12.174;2022-11-22T17:17:02;100089.41;;;3.08;100.00
53514;BME280;39768;54.148;12.174;2022-11-22T17:21:28;100093.16;;;3.56;100.00
53514;BME280;39768;54.148;12.174;2022-11-22T17:25:37;100101.72;;;3.27;100.00
53514;BME280;39768;54.148;12.174;2022-11-22T17:29:39;100104.34;;;3.23;100.00
53514;BME280;39768;54.148;12.174;2022-11-22T17:33:57;100100.00;;;3.28;100.00
53514;BME280;39768;54.148;12.174;2022-11-22T17:37:59;100090.28;;;3.07;100.00
53514;BME280;39768;54.148;12.174;2022-11-22T17:42:00;100095.66;;;3.33;100.00
53514;BME280;39768;54.148;12.174;2022-11-22T17:46:02;100081.69;;;3.34;100.00
53514;BME280;39768;54.148;12.174;2022-11-22T17:50:04;100065.78;;;3.05;100.00
53514;BME280;39768;54.148;12.174;2022-11-22T17:54:05;100065.03;;;3.29;100.00
53514;BME280;39768;54.148;12.174;2022-11-22T17:58:10;100080.78;;;3.26;100.00
53514;BME280;39768;54.148;12.174;2022-11-22T18:02:11;100091.28;;;3.33;100.00
53514;BME280;39768;54.148;12.174;2022-11-22T18:06:16;100097.44;;;3.41;100.00
53514;BME280;39768;54.148;12.174;2022-11-22T18:10:18;100097.41;;;3.34;100.00
53514;BME280;39768;54.148;12.174;2022-11-22T18:14:19;100106.13;;;3.28;100.00
53514;BME280;39768;54.148;12.174;2022-11-22T18:18:22;100108.75;;;3.25;100.00
53514;BME280;39768;54.148;12.174;2022-11-22T18:22:43;100112.09;;;3.03;100.00
53514;BME280;39768;54.148;12.174;2022-11-22T18:26:45;100130.59;;;3.30;100.00
53514;BME280;39768;54.148;12.174;2022-11-22T18:30:46;100129.66;;;3.16;100.00
53514;BME280;39768;54.148;12.174;2022-11-22T18:34:48;100152.47;;;3.31;100.00
53514;BME280;39768;54.148;12.174;2022-11-22T18:38:49;100159.47;;;3.26;100.00
53514;BME280;39768;54.148;12.174;2022-11-22T18:42:57;100163.63;;;2.96;100.00
53514;BME280;39768;54.148;12.174;2022-11-22T18:46:58;100161.31;;;3.48;100.00
53514;BME280;39768;54.148;12.174;2022-11-22T18:51:02;100166.53;;;3.40;100.00
53514;BME280;39768;54.148;12.174;2022-11-22T18:55:08;100174.47;;;3.52;100.00
53514;BME280;39768;54.148;12.174;2022-11-22T18:59:10;100162.75;;;3.00;100.00
53514;BME280;39768;54.148;12.174;2022-11-22T19:03:13;100162.91;;;3.22;100.00
53514;BME280;39768;54.148;12.174;2022-11-22T19:07:14;100155.16;;;3.38;100.00
53514;BME280;39768;54.148;12.174;2022-11-22T19:11:16;100152.59;;;3.52;100.00
53514;BME280;39768;54.148;12.174;2022-11-22T19:15:17;100136.75;;;3.34;100.00
53514;BME280;39768;54.148;12.174;2022-11-22T19:19:19;100137.75;;;3.60;100.00
53514;BME280;39768;54.148;12.174;2022-11-22T19:23:20;100136.75;;;3.34;100.00
53514;BME280;39768;54.148;12.174;2022-11-22T19:27:21;100122.72;;;3.29;100.00
53514;BME280;39768;54.148;12.174;2022-11-22T19:31:26;100127.19;;;3.46;100.00
53514;BME280;39768;54.148;12.174;2022-11-22T19:35:29;100123.59;;;3.22;100.00
53514;BME280;39768;54.148;12.174;2022-11-22T19:39:36;100127.97;;;3.27;100.00
53514;BME280;39768;54.148;12.174;2022-11-22T19:43:38;100132.47;;;3.49;100.00
53514;BME280;39768;54.148;12.174;2022-11-22T19:47:39;100135.03;;;3.42;100.00
53514;BME280;39768;54.148;12.174;2022-11-22T19:51:40;100146.47;;;3.50;100.00
53514;BME280;39768;54.148;12.174;2022-11-22T19:55:42;100145.44;;;3.24;100.00
53514;BME280;39768;54.148;12.174;2022-11-22T19:59:46;100146.34;;;3.26;100.00
53514;BME280;39768;54.148;12.174;2022-11-22T20:03:52;100134.31;;;3.66;100.00
53514;BME280;39768;54.148;12.174;2022-11-22T20:07:54;100150.69;;;3.28;100.00
53514;BME280;39768;54.148;12.174;2022-11-22T20:11:55;100149.13;;;3.59;100.00
53514;BME280;39768;54.148;12.174;2022-11-22T20:15:57;100160.53;;;3.63;100.00
53514;BME280;39768;54.148;12.174;2022-11-22T20:19:58;100149.84;;;3.25;100.00
53514;BME280;39768;54.148;12.174;2022-11-22T20:24:00;100142.91;;;3.39;100.00
53514;BME280;39768;54.148;12.174;2022-11-22T20:28:02;100147.25;;;3.32;100.00
53514;BME280;39768;54.148;12.174;2022-11-22T20:32:04;100132.44;;;3.40;100.00
53514;BME280;39768;54.148;12.174;2022-11-22T20:36:12;100135.09;;;3.49;100.00
53514;BME280;39768;54.148;12.174;2022-11-22T20:40:14;100136.06;;;3.67;100.00
53514;BME280;39768;54.148;12.174;2022-11-22T20:44:16;100142.94;;;3.40;100.00
53514;BME280;39768;54.148;12.174;2022-11-22T20:48:23;100142.16;;;3.61;100.00
53514;BME280;39768;54.148;12.174;2022-11-22T20:52:25;100141.38;;;3.82;100.00
53514;BME280;39768;54.148;12.174;2022-11-22T20:56:26;100151.81;;;3.68;100.00
53514;BME280;39768;54.148;12.174;2022-11-22T21:00:28;100136.75;;;3.34;100.00
53514;BME280;39768;54.148;12.174;2022-11-22T21:04:29;100136.97;;;3.70;100.00
53514;BME280;39768;54.148;12.174;2022-11-22T21:08:32;100148.28;;;3.65;100.00
53514;BME280;39768;54.148;12.174;2022-11-22T21:12:33;100155.22;;;3.57;100.00
53514;BME280;39768;54.148;12.174;2022-11-22T21:16:35;100157.03;;;3.62;100.00
53514;BME280;39768;54.148;12.174;2022-11-22T21:20:36;100163.09;;;3.49;100.00
53514;BME280;39768;54.148;12.174;2022-11-22T21:24:38;100154.56;;;4.00;100.00
53514;BME280;39768;54.148;12.174;2022-11-22T21:28:39;100154.47;;;3.77;100.00
53514;BME280;39768;54.148;12.174;2022-11-22T21:32:41;100148.38;;;3.90;100.00
53514;BME280;39768;54.148;12.174;2022-11-22T21:36:42;100148.25;;;3.52;100.00
53514;BME280;39768;54.148;12.174;2022-11-22T21:40:54;100141.38;;;3.82;100.00
53514;BME280;39768;54.148;12.174;2022-11-22T21:45:16;100146.56;;;3.74;100.00
53514;BME280;39768;54.148;12.174;2022-11-22T21:49:17;100151.81;;;3.74;100.00
53514;BME280;39768;54.148;12.174;2022-11-22T21:53:20;100152.78;;;3.92;100.00
53514;BME280;39768;54.148;12.174;2022-11-22T21:57:22;100147.44;;;3.73;100.00
53514;BME280;39768;54.148;12.174;2022-11-22T22:01:24;100139.59;;;3.79;100.00
53514;BME280;39768;54.148;12.174;2022-11-22T22:05:26;100143.94;;;3.68;100.00
53514;BME280;39768;54.148;12.174;2022-11-22T22:09:27;100156.16;;;3.63;100.00
53514;BME280;39768;54.148;12.174;2022-11-22T22:13:29;100161.50;;;3.86;100.00
53514;BME280;39768;54.148;12.174;2022-11-22T22:17:31;100156.19;;;3.75;100.00
53514;BME280;39768;54.148;12.174;2022-11-22T22:21:32;100159.78;;;3.94;100.00
53514;BME280;39768;54.148;12.174;2022-11-22T22:25:37;100165.81;;;3.73;100.00